sensor_id;sensor_type;location;lat;lon;timestamp;pressure;altitude;pressure_sealevel;temperature;humidity
21153;BME280;10734;44.792;20.482;2023-02-21T07:29:22;100216.28;;;10.76;nan
21153;BME280;10734;44.792;20.482;2023-02-21T07:31:49;100222.47;;;10.94;nan
21153;BME280;10734;44.792;20.482;2023-02-21T07:34:16;100213.97;;;11.17;nan
21153;BME280;10734;44.792;20.482;2023-02-21T07:36:45;100213.66;;;11.07;nan
21153;BME280;10734;44.792;20.482;2023-02-21T07:39:11;100212.34;;;11.46;nan
21153;BME280;10734;44.792;20.482;2023-02-21T07:41:38;100209.00;;;11.73;nan
21153;BME280;10734;44.792;20.482;2023-02-21T07:44:05;100211.28;;;12.11;nan
21153;BME280;10734;44.792;20.482;2023-02-21T07:46:33;100201.19;;;12.28;nan
21153;BME280;10734;44.792;20.482;2023-02-21T07:49:00;100207.50;;;12.58;nan
21153;BME280;10734;44.792;20.482;2023-02-21T07:51:28;100199.09;;;12.62;nan
21153;BME280;10734;44.792;20.482;2023-02-21T07:53:55;100197.94;;;12.38;nan
21153;BME280;10734;44.792;20.482;2023-02-21T07:56:22;100195.66;;;12.16;nan
21153;BME280;10734;44.792;20.482;2023-02-21T07:58:49;100202.84;;;12.45;nan
21153;BME280;10734;44.792;20.482;2023-02-21T08:01:16;100201.81;;;12.62;nan
21153;BME280;10734;44.792;20.482;2023-02-21T08:03:43;100208.06;;;12.63;nan
21153;BME280;10734;44.792;20.482;2023-02-21T08:06:10;100213.28;;;12.80;nan
21153;BME280;10734;44.792;20.482;2023-02-21T08:08:37;100210.03;;;12.89;nan
21153;BME280;10734;44.792;20.482;2023-02-21T08:11:04;100205.47;;;13.18;nan
21153;BME280;10734;44.792;20.482;2023-02-21T08:13:31;100204.56;;;13.46;nan
21153;BME280;10734;44.792;20.482;2023-02-21T08:15:57;100194.50;;;13.76;nan
21153;BME280;10734;44.792;20.482;2023-02-21T08:18:24;100189.53;;;13.55;nan
21153;BME280;10734;44.792;20.482;2023-02-21T08:20:52;100192.22;;;13.69;nan
21153;BME280;10734;44.792;20.482;2023-02-21T08:23:20;100197.53;;;13.30;nan
21153;BME280;10734;44.792;20.482;2023-02-21T08:25:47;100196.75;;;13.28;nan
21153;BME280;10734;44.792;20.482;2023-02-21T08:28:15;100199.44;;;13.96;nan
21153;BME280;10734;44.792;20.482;2023-02-21T08:30:42;100200.09;;;14.12;nan
21153;BME280;10734;44.792;20.482;2023-02-21T08:33:09;100205.53;;;14.00;nan
21153;BME280;10734;44.792;20.482;2023-02-21T08:35:36;100203.06;;;13.82;nan
21153;BME280;10734;44.792;20.482;2023-02-21T08:38:02;100212.47;;;13.49;nan
21153;BME280;10734;44.792;20.482;2023-02-21T08:40:30;100206.81;;;13.67;nan
21153;BME280;10734;44.792;20.482;2023-02-21T08:42:58;100211.34;;;13.93;nan
21153;BME280;10734;44.792;20.482;2023-02-21T08:45:27;100214.34;;;14.29;nan
21153;BME280;10734;44.792;20.482;2023-02-21T08:47:55;100211.38;;;14.72;nan
21153;BME280;10734;44.792;20.482;2023-02-21T08:50:23;100215.63;;;14.36;nan
21153;BME280;10734;44.792;20.482;2023-02-21T08:52:50;100212.06;;;14.35;nan
21153;BME280;10734;44.792;20.482;2023-02-21T08:55:18;100218.94;;;14.01;nan
21153;BME280;10734;44.792;20.482;2023-02-21T08:57:51;100221.31;;;14.06;nan
21153;BME280;10734;44.792;20.482;2023-02-21T09:00:20;100211.78;;;14.00;nan
21153;BME280;10734;44.792;20.482;2023-02-21T09:02:54;100215.25;;;14.02;nan
21153;BME280;10734;44.792;20.482;2023-02-21T09:05:24;100209.25;;;14.50;nan
21153;BME280;10734;44.792;20.482;2023-02-21T09:07:54;100213.94;;;14.60;nan
21153;BME280;10734;44.792;20.482;2023-02-21T09:10:25;100207.53;;;15.12;nan
21153;BME280;10734;44.792;20.482;2023-02-21T09:12:52;100209.47;;;15.10;nan
21153;BME280;10734;44.792;20.482;2023-02-21T09:15:19;100211.69;;;15.42;nan
21153;BME280;10734;44.792;20.482;2023-02-21T09:17:46;100202.38;;;15.70;nan
21153;BME280;10734;44.792;20.482;2023-02-21T09:20:18;100209.06;;;15.77;nan
21153;BME280;10734;44.792;20.482;2023-02-21T09:22:45;100194.25;;;15.57;nan
21153;BME280;10734;44.792;20.482;2023-02-21T09:25:16;100197.22;;;15.42;nan
21153;BME280;10734;44.792;20.482;2023-02-21T09:27:43;100201.81;;;15.65;nan
21153;BME280;10734;44.792;20.482;2023-02-21T09:30:19;100196.41;;;15.89;nan
21153;BME280;10734;44.792;20.482;2023-02-21T09:32:50;100187.75;;;16.19;nan
21153;BME280;10734;44.792;20.482;2023-02-21T09:35:17;100188.66;;;16.31;nan
21153;BME280;10734;44.792;20.482;2023-02-21T09:37:44;100186.59;;;16.57;nan
21153;BME280;10734;44.792;20.482;2023-02-21T09:42:52;100175.94;;;16.78;nan
21153;BME280;10734;44.792;20.482;2023-02-21T09:45:20;100176.03;;;16.76;nan
21153;BME280;10734;44.792;20.482;2023-02-21T09:47:50;100170.84;;;16.96;nan
21153;BME280;10734;44.792;20.482;2023-02-21T09:50:24;100160.31;;;17.14;nan
21153;BME280;10734;44.792;20.482;2023-02-21T09:52:56;100158.75;;;16.89;nan
21153;BME280;10734;44.792;20.482;2023-02-21T09:55:30;100152.97;;;17.37;nan
21153;BME280;10734;44.792;20.482;2023-02-21T09:57:59;100150.13;;;17.38;nan
21153;BME280;10734;44.792;20.482;2023-02-21T10:00:36;100157.50;;;16.82;nan
21153;BME280;10734;44.792;20.482;2023-02-21T10:08:57;100137.22;;;17.52;nan
21153;BME280;10734;44.792;20.482;2023-02-21T10:16:32;100135.97;;;18.51;nan
21153;BME280;10734;44.792;20.482;2023-02-21T10:19:13;100133.00;;;17.91;nan
21153;BME280;10734;44.792;20.482;2023-02-21T10:21:45;100136.44;;;18.56;nan
21153;BME280;10734;44.792;20.482;2023-02-21T10:24:17;100131.44;;;18.82;nan
21153;BME280;10734;44.792;20.482;2023-02-21T10:26:53;100126.19;;;19.00;nan
21153;BME280;10734;44.792;20.482;2023-02-21T10:29:26;100132.22;;;19.63;nan
21153;BME280;10734;44.792;20.482;2023-02-21T10:32:00;100131.84;;;19.87;nan
21153;BME280;10734;44.792;20.482;2023-02-21T10:34:30;100127.63;;;20.12;nan
21153;BME280;10734;44.792;20.482;2023-02-21T10:37:10;100117.56;;;19.83;nan
21153;BME280;10734;44.792;20.482;2023-02-21T10:39:43;100118.78;;;20.47;nan
21153;BME280;10734;44.792;20.482;2023-02-21T10:42:25;100115.50;;;20.34;nan
21153;BME280;10734;44.792;20.482;2023-02-21T10:44:54;100118.50;;;20.41;nan
21153;BME280;10734;44.792;20.482;2023-02-21T10:47:28;100117.25;;;20.25;nan
21153;BME280;10734;44.792;20.482;2023-02-21T10:50:02;100107.84;;;20.57;nan
21153;BME280;10734;44.792;20.482;2023-02-21T10:52:29;100108.59;;;20.87;nan
21153;BME280;10734;44.792;20.482;2023-02-21T10:55:05;100103.19;;;20.95;nan
21153;BME280;10734;44.792;20.482;2023-02-21T10:57:56;100097.53;;;21.06;nan
21153;BME280;10734;44.792;20.482;2023-02-21T11:00:43;100094.97;;;20.67;nan
21153;BME280;10734;44.792;20.482;2023-02-21T11:03:22;100096.50;;;20.32;nan
21153;BME280;10734;44.792;20.482;2023-02-21T11:05:55;100100.84;;;20.25;nan
21153;BME280;10734;44.792;20.482;2023-02-21T11:08:37;100094.72;;;18.96;nan
21153;BME280;10734;44.792;20.482;2023-02-21T11:11:04;100093.03;;;19.14;nan
21153;BME280;10734;44.792;20.482;2023-02-21T11:13:31;100091.38;;;19.52;nan
21153;BME280;10734;44.792;20.482;2023-02-21T11:16:15;100083.03;;;20.02;nan
21153;BME280;10734;44.792;20.482;2023-02-21T11:18:42;100082.47;;;19.69;nan
21153;BME280;10734;44.792;20.482;2023-02-21T11:21:14;100083.41;;;20.26;nan
21153;BME280;10734;44.792;20.482;2023-02-21T11:23:48;100084.41;;;20.35;nan
21153;BME280;10734;44.792;20.482;2023-02-21T11:26:19;100065.38;;;21.08;nan
21153;BME280;10734;44.792;20.482;2023-02-21T11:28:46;100063.41;;;20.36;nan
21153;BME280;10734;44.792;20.482;2023-02-21T11:31:32;100059.94;;;19.77;nan
21153;BME280;10734;44.792;20.482;2023-02-21T11:34:05;100055.34;;;20.24;nan
21153;BME280;10734;44.792;20.482;2023-02-21T11:36:35;100044.28;;;21.18;nan
21153;BME280;10734;44.792;20.482;2023-02-21T11:41:34;100050.13;;;19.55;nan
21153;BME280;10734;44.792;20.482;2023-02-21T11:44:01;100051.81;;;19.17;nan
21153;BME280;10734;44.792;20.482;2023-02-21T11:46:38;100048.06;;;18.58;nan
21153;BME280;10734;44.792;20.482;2023-02-21T11:51:46;100044.69;;;18.76;nan
21153;BME280;10734;44.792;20.482;2023-02-21T11:54:15;100040.38;;;18.73;nan
21153;BME280;10734;44.792;20.482;2023-02-21T11:56:51;100042.19;;;18.32;nan
21153;BME280;10734;44.792;20.482;2023-02-21T11:59:35;100041.72;;;18.58;nan
21153;BME280;10734;44.792;20.482;2023-02-21T12:31:45;99992.41;;;20.34;nan
21153;BME280;10734;44.792;20.482;2023-02-21T12:34:27;99986.09;;;19.96;nan
21153;BME280;10734;44.792;20.482;2023-02-21T12:42:41;99970.31;;;21.72;nan
21153;BME280;10734;44.792;20.482;2023-02-21T12:45:37;99975.63;;;22.60;nan
21153;BME280;10734;44.792;20.482;2023-02-21T12:51:03;99977.53;;;21.99;nan
21153;BME280;10734;44.792;20.482;2023-02-21T12:53:47;99970.06;;;22.43;nan
21153;BME280;10734;44.792;20.482;2023-02-21T12:56:37;99964.53;;;22.01;nan
21153;BME280;10734;44.792;20.482;2023-02-21T12:59:30;99965.56;;;22.77;nan
21153;BME280;10734;44.792;20.482;2023-02-21T13:02:07;99962.94;;;23.50;nan
21153;BME280;10734;44.792;20.482;2023-02-21T13:04:47;99961.19;;;23.08;nan
21153;BME280;10734;44.792;20.482;2023-02-21T13:07:22;99962.59;;;23.53;nan
21153;BME280;10734;44.792;20.482;2023-02-21T13:10:02;99956.75;;;23.40;nan
21153;BME280;10734;44.792;20.482;2023-02-21T13:12:40;99949.56;;;23.88;nan
21153;BME280;10734;44.792;20.482;2023-02-21T13:15:22;99955.03;;;23.39;nan
21153;BME280;10734;44.792;20.482;2023-02-21T13:18:26;99944.59;;;22.67;nan
21153;BME280;10734;44.792;20.482;2023-02-21T13:21:22;99943.47;;;22.86;nan
21153;BME280;10734;44.792;20.482;2023-02-21T13:24:01;99943.34;;;22.54;nan
21153;BME280;10734;44.792;20.482;2023-02-21T13:26:43;99937.94;;;22.70;nan
21153;BME280;10734;44.792;20.482;2023-02-21T13:29:18;99927.13;;;22.77;nan
21153;BME280;10734;44.792;20.482;2023-02-21T13:31:45;99933.78;;;21.97;nan
21153;BME280;10734;44.792;20.482;2023-02-21T13:34:17;99927.25;;;21.38;nan
21153;BME280;10734;44.792;20.482;2023-02-21T13:36:46;99927.53;;;20.82;nan
21153;BME280;10734;44.792;20.482;2023-02-21T13:39:29;99929.56;;;20.24;nan
21153;BME280;10734;44.792;20.482;2023-02-21T13:44:33;99940.75;;;19.47;nan
21153;BME280;10734;44.792;20.482;2023-02-21T13:47:07;99932.47;;;19.85;nan
21153;BME280;10734;44.792;20.482;2023-02-21T13:49:36;99928.63;;;19.59;nan
21153;BME280;10734;44.792;20.482;2023-02-21T13:57:31;99935.25;;;18.69;nan
21153;BME280;10734;44.792;20.482;2023-02-21T14:08:48;99932.00;;;19.14;nan
21153;BME280;10734;44.792;20.482;2023-02-21T14:14:24;99910.94;;;20.10;nan
21153;BME280;10734;44.792;20.482;2023-02-21T14:19:23;99921.84;;;19.82;nan
21153;BME280;10734;44.792;20.482;2023-02-21T14:22:04;99928.97;;;20.30;nan
21153;BME280;10734;44.792;20.482;2023-02-21T14:24:38;99926.25;;;21.30;nan
21153;BME280;10734;44.792;20.482;2023-02-21T14:32:26;99919.72;;;19.57;nan
21153;BME280;10734;44.792;20.482;2023-02-21T14:34:56;99928.41;;;19.33;nan
21153;BME280;10734;44.792;20.482;2023-02-21T14:45:32;99917.66;;;20.53;nan
21153;BME280;10734;44.792;20.482;2023-02-21T14:48:31;99919.59;;;21.06;nan
21153;BME280;10734;44.792;20.482;2023-02-21T15:05:39;99926.91;;;22.62;nan
21153;BME280;10734;44.792;20.482;2023-02-21T15:10:30;99930.81;;;23.59;nan
21153;BME280;10734;44.792;20.482;2023-02-21T15:12:59;99926.88;;;23.12;nan
21153;BME280;10734;44.792;20.482;2023-02-21T15:15:35;99926.88;;;23.29;nan
21153;BME280;10734;44.792;20.482;2023-02-21T15:18:19;99927.56;;;23.55;nan
21153;BME280;10734;44.792;20.482;2023-02-21T15:21:02;99928.44;;;24.28;nan
21153;BME280;10734;44.792;20.482;2023-02-21T15:23:29;99931.88;;;24.46;nan
21153;BME280;10734;44.792;20.482;2023-02-21T15:25:59;99928.06;;;23.59;nan
21153;BME280;10734;44.792;20.482;2023-02-21T15:28:28;99923.44;;;23.19;nan
21153;BME280;10734;44.792;20.482;2023-02-21T15:30:56;99923.44;;;23.02;nan
21153;BME280;10734;44.792;20.482;2023-02-21T15:33:24;99923.50;;;22.68;nan
21153;BME280;10734;44.792;20.482;2023-02-21T15:35:59;99926.72;;;23.14;nan
21153;BME280;10734;44.792;20.482;2023-02-21T15:38:38;99917.25;;;23.74;nan
21153;BME280;10734;44.792;20.482;2023-02-21T15:41:12;99920.94;;;22.66;nan
21153;BME280;10734;44.792;20.482;2023-02-21T15:43:50;99922.44;;;22.61;nan
21153;BME280;10734;44.792;20.482;2023-02-21T15:46:23;99912.84;;;22.65;nan
21153;BME280;10734;44.792;20.482;2023-02-21T15:48:53;99912.91;;;22.81;nan
21153;BME280;10734;44.792;20.482;2023-02-21T15:51:22;99919.31;;;23.14;nan
21153;BME280;10734;44.792;20.482;2023-02-21T15:57:16;99909.38;;;21.78;nan
21153;BME280;10734;44.792;20.482;2023-02-21T15:59:45;99912.78;;;20.92;nan
21153;BME280;10734;44.792;20.482;2023-02-21T16:02:14;99911.66;;;20.40;nan
21153;BME280;10734;44.792;20.482;2023-02-21T16:04:44;99910.56;;;19.95;nan
21153;BME280;10734;44.792;20.482;2023-02-21T16:09:56;99915.59;;;18.95;nan
21153;BME280;10734;44.792;20.482;2023-02-21T16:12:30;99919.13;;;18.47;nan
21153;BME280;10734;44.792;20.482;2023-02-21T16:18:07;99918.06;;;17.67;nan
21153;BME280;10734;44.792;20.482;2023-02-21T16:20:35;99919.22;;;17.43;nan
21153;BME280;10734;44.792;20.482;2023-02-21T16:28:39;99919.75;;;16.73;nan
21153;BME280;10734;44.792;20.482;2023-02-21T16:31:08;99920.81;;;16.49;nan
21153;BME280;10734;44.792;20.482;2023-02-21T16:33:37;99914.56;;;16.38;nan
21153;BME280;10734;44.792;20.482;2023-02-21T16:36:08;99917.88;;;16.30;nan
21153;BME280;10734;44.792;20.482;2023-02-21T16:38:35;99915.09;;;16.20;nan
21153;BME280;10734;44.792;20.482;2023-02-21T16:41:01;99914.00;;;16.00;nan
21153;BME280;10734;44.792;20.482;2023-02-21T16:43:28;99911.66;;;15.84;nan
21153;BME280;10734;44.792;20.482;2023-02-21T16:45:56;99909.19;;;15.70;nan
21153;BME280;10734;44.792;20.482;2023-02-21T16:48:26;99918.25;;;15.58;nan
21153;BME280;10734;44.792;20.482;2023-02-21T16:51:04;99922.56;;;15.49;nan
21153;BME280;10734;44.792;20.482;2023-02-21T16:53:32;99919.72;;;15.40;nan
21153;BME280;10734;44.792;20.482;2023-02-21T16:56:00;99924.47;;;15.25;nan
21153;BME280;10734;44.792;20.482;2023-02-21T17:01:02;99927.22;;;15.01;nan
